Great Falls, MT

8:40 AM MDT on September 02, 2015 (GMT -0600)
West Hill | | Change Station
CLOSE
Current Station
Personal Weather Station
Location: Great Falls, MT
Elevation: 3510 ft
Nearby Weather Stations
Active Advisory: Fire Weather Warning

Elev 3510 ft 47.49 °N, 111.35 °W | Updated 2 seconds ago

Clear
Clear
59.0 °F
Feels Like 59.0 °F
N
4.2
Wind Variable Wind from WSW
Gusts 4.9 mph

Today
High -- | Low -- °F
--% Chance of Precip.
Yesterday
High -- | Low -- °F
Precip. -- in
6:45 AM 8:04 PM
Waning Gibbous, 80% visible
Pressure 29.64 in
Visibility 10.0 miles
Clouds Clear
Dew Point 34 °F
Humidity 39%
Rainfall 0.00 in
Snow Depth Not available.
UV 2.0 out of 12
Pollen 8.70 out of 12
Air Quality Not available.
Flu Activity Not available.
METAR KGTF 021353Z 00000KT 10SM CLR 16/02 A2972 RMK AO2 SLP037 T01560017
Pressure 29.64 in
Visibility 10.0 miles
Clouds Clear
Dew Point 34 °F
Humidity 39%
Rainfall 0.00 in
Snow Depth Not available.
UV 2.0 out of 12
Pollen 8.70 out of 12
Air Quality Not available.
Flu Activity Not available.
METAR KGTF 021353Z 00000KT 10SM CLR 16/02 A2972 RMK AO2 SLP037 T01560017

10-Day Weather Forecast

×

Almanac

Astronomy

Sep. 02, 2015 Rise Set
Actual Time
Civil Twilight
Nautical Twilight
Astronomical Twilight
Moon
Length of Visible Light
Length of Day
Tomorrow will be .
, % of the Moon is Illuminated

Today's Extremes

State Highs State Lows

Community

WunderPhotos

Upload Photos

1,851,763 photos uploaded!

WunderBlogs® & News

Nearby

Air Quality

  Air Quality AQ Index Pollutant
Not available.

Snow Depth

Station Depth Elevation

Earthquake Activity

City Distance Mag. Time & Date
Minimum magnitude displayed is 2.5.

Coastal Water Temperatures

Place Temperature

Stations

Nearby Weather Stations

Station Location Temp. Windchill Dew Point Humidity Wind Precip. Elev Updated Type
                   
Fire Weather Warning
Statement as of 6:50 AM MDT on September 02, 2015

... Red flag warning in effect from noon today to 9 PM MDT this
evening for gusty winds and low humidity for fire weather zones
115 and 117...

The National Weather Service in Great Falls has issued a red flag
warning... which is in effect from noon today to 9 PM MDT this
evening.

* Affected area... fire weather zone 115. Fire weather zone 117.

* Wind... west to southwest winds 15 to 20 mph with gusts 25 to
30 mph are expected.

* Humidity... minimum humidity values in the afternoon are forecast
to be 10-20 percent.

* Impacts... any existing fires or new fires that develop will
likely spread rapidly.

Precautionary/preparedness actions...

A red flag warning means that critical fire weather conditions
are likely. A combination of gusty winds... low relative
humidity... and warm temperatures will create high fire growth
potential.

Please advise the appropriate officials or fire crews in these
areas of this red flag warning.